Fords Creek, Mississippi
Current Conditions -  °F | °C
As of 12:53 PM on Monday 20 Oct 2014 (Local Time) from KHBG Reporting Station
Clear Clear  
Wind Chill: 73°   Ceiling: Unl
Heat Index: 73°   Visibility: 10mi
Dew Point: 48°   Wind: 6mph
Humidity: 41%   Direction: 360°N
Pressure: 30.06"   Gusts: NA
Location:  30.8781°N, 89.5858°W
Report Text: KHBG 201753Z AUTO 36005KT 10SM CLR 23/09 A3006 RMK AO2 SLP178 T02280089 10233 20072 58015
Loading
Personal Weather Stations






























Interactive Weather Map New forecast layout! Learn more

10-Day Weather Forecast

Advertisements
Track Severe Weather on mobile